Time;durP1;ratioP1;P1;durP2;ratioP2;P2;SDS_P1;SDS_P2;PMS_P1;PMS_P2;Temp;Humidity;BMP_temperature;BMP_pressure;BME280_temperature;BME280_humidity;BME280_pressure;Samples;Min_cycle;Max_cycle;Signal;HPM_P1;HPM_P2
2022/04/22 00:00:00;;;;;;;9.13;6.95;;;;;;;16.85;36.26;92214.28;5030670;28;20487;-88
2022/04/22 00:02:26;;;;;;;8.90;6.93;;;;;;;16.85;36.29;92215.03;5030150;28;20124;-88
2022/04/22 00:04:51;;;;;;;11.30;6.78;;;;;;;16.84;36.55;92212.81;5015014;28;20546;-88
2022/04/22 00:07:16;;;;;;;9.48;6.82;;;;;;;16.85;36.51;92217.75;5031441;28;20049;-88
2022/04/22 00:09:42;;;;;;;9.93;7.40;;;;;;;16.86;36.34;92207.56;5030998;28;20037;-89
2022/04/22 00:12:08;;;;;;;10.57;7.43;;;;;;;16.83;36.71;92211.34;5030633;28;20493;-88
2022/04/22 00:14:33;;;;;;;9.10;7.57;;;;;;;16.85;36.45;92215.03;5036343;28;20037;-88
2022/04/22 00:16:59;;;;;;;7.75;6.75;;;;;;;16.83;36.32;92198.44;4995787;28;20060;-88
2022/04/22 00:19:24;;;;;;;9.63;7.22;;;;;;;16.84;36.39;92193.72;4996222;28;20048;-88
2022/04/22 00:21:50;;;;;;;7.68;6.80;;;;;;;16.83;36.58;92192.25;5023290;28;20509;-88
2022/04/22 00:24:16;;;;;;;9.40;6.97;;;;;;;16.83;36.48;92195.72;5014587;28;20040;-88
2022/04/22 00:26:41;;;;;;;10.55;7.25;;;;;;;16.83;36.35;92194.97;5030864;28;20037;-88
2022/04/22 00:29:07;;;;;;;7.10;5.93;;;;;;;16.83;36.29;92189.50;5031022;28;20404;-88
2022/04/22 00:31:32;;;;;;;7.10;6.40;;;;;;;16.82;36.35;92186.06;5015199;28;20045;-88
2022/04/22 00:33:58;;;;;;;8.32;6.05;;;;;;;16.82;36.20;92188.78;5017272;28;20249;-88
2022/04/22 00:36:23;;;;;;;9.27;6.20;;;;;;;16.82;36.40;92185.31;4994669;28;20048;-88
2022/04/22 00:38:49;;;;;;;8.70;6.75;;;;;;;16.81;36.66;92181.84;4997357;28;20048;-89
2022/04/22 00:41:14;;;;;;;7.68;6.70;;;;;;;16.83;36.36;92176.59;5012297;28;20037;-88
2022/04/22 00:43:42;;;;;;;11.23;6.97;;;;;;;16.81;36.16;92173.66;5015290;28;20422;-88
2022/04/22 00:46:07;;;;;;;10.18;7.00;;;;;;;16.80;36.53;92174.94;4998650;28;20491;-88
2022/04/22 00:48:34;;;;;;;9.45;7.28;;;;;;;16.81;36.90;92172.94;4997943;28;20061;-88
2022/04/22 00:51:00;;;;;;;9.48;6.75;;;;;;;16.81;36.53;92170.19;5014654;28;20030;-88
2022/04/22 00:53:28;;;;;;;10.50;7.60;;;;;;;16.81;36.62;92167.47;5015038;28;20040;-88
2022/04/22 00:55:53;;;;;;;8.70;6.50;;;;;;;16.81;36.54;92170.94;5015316;28;20037;-88
2022/04/22 00:58:19;;;;;;;8.45;6.43;;;;;;;16.82;36.78;92166.22;5026368;28;20057;-88
2022/04/22 01:00:44;;;;;;;10.80;6.93;;;;;;;16.81;36.44;92167.47;5031350;28;20408;-88
2022/04/22 01:03:10;;;;;;;7.30;6.47;;;;;;;16.81;36.78;92159.28;5016748;28;20034;-88
2022/04/22 01:11:03;;;;;;;9.05;6.55;;;;;;;16.80;36.70;92142.19;5052178;28;20547;-88
2022/04/22 01:13:29;;;;;;;7.50;5.93;;;;;;;16.79;36.76;92132.53;5014789;28;20045;-88
2022/04/22 01:15:55;;;;;;;7.35;6.10;;;;;;;16.79;36.25;92140.72;5015612;28;20092;-88
2022/04/22 01:18:21;;;;;;;9.35;6.35;;;;;;;16.81;36.72;92132.72;5017233;28;20041;-88
2022/04/22 01:20:46;;;;;;;8.15;6.40;;;;;;;16.79;36.77;92137.97;5016602;28;20108;-88
2022/04/22 01:23:13;;;;;;;9.85;6.75;;;;;;;16.79;36.69;92132.53;5034063;28;20041;-88
2022/04/22 01:25:38;;;;;;;8.13;6.43;;;;;;;16.77;36.63;92130.31;5050266;28;20037;-88
2022/04/22 01:28:04;;;;;;;8.30;6.32;;;;;;;16.77;36.48;92130.31;5033308;28;20041;-88
2022/04/22 01:30:29;;;;;;;8.10;6.53;;;;;;;16.77;36.66;92133.06;5033847;28;20029;-88
2022/04/22 01:32:56;;;;;;;8.68;6.43;;;;;;;16.77;36.71;92126.84;5016547;28;20037;-88
2022/04/22 01:35:22;;;;;;;8.10;5.75;;;;;;;16.79;36.58;92132.53;5034002;28;20079;-88
2022/04/22 01:37:47;;;;;;;7.78;6.60;;;;;;;16.78;36.78;92123.59;5033130;28;20041;-88
2022/04/22 01:40:13;;;;;;;10.18;6.82;;;;;;;16.78;36.83;92111.94;5030014;28;20029;-88
2022/04/22 01:42:38;;;;;;;8.13;6.63;;;;;;;16.77;36.68;92118.69;4998996;28;20482;-88
2022/04/22 01:45:07;;;;;;;7.85;6.13;;;;;;;16.76;37.05;92109.03;5016761;28;20434;-88
2022/04/22 01:47:33;;;;;;;7.60;5.93;;;;;;;16.78;36.52;92106.50;5033509;28;20059;-88
2022/04/22 01:49:59;;;;;;;9.45;6.43;;;;;;;16.74;36.85;92100.63;5033685;28;20124;-88
2022/04/22 01:52:25;;;;;;;8.25;6.13;;;;;;;16.76;36.75;92104.28;5032680;28;20125;-88
2022/04/22 01:54:51;;;;;;;8.18;5.75;;;;;;;16.78;36.61;92095.59;5049391;28;20036;-87
2022/04/22 01:57:17;;;;;;;9.02;6.97;;;;;;;16.75;36.47;92094.66;5014550;28;20029;-87
2022/04/22 01:59:44;;;;;;;9.25;6.88;;;;;;;16.75;36.65;92093.91;5032830;28;20151;-89
2022/04/22 02:02:10;;;;;;;9.35;6.68;;;;;;;16.75;36.99;92097.38;5015200;28;20048;-88
2022/04/22 02:04:35;;;;;;;8.63;6.03;;;;;;;16.74;36.99;92090.44;5032968;28;20049;-87
2022/04/22 02:07:01;;;;;;;8.35;6.22;;;;;;;16.75;36.93;92086.47;5032199;28;20272;-88
2022/04/22 02:09:26;;;;;;;7.95;5.63;;;;;;;16.76;36.92;92084.47;5047947;28;20029;-88
2022/04/22 02:11:51;;;;;;;10.00;6.07;;;;;;;16.75;36.88;92083.72;5016409;28;20041;-88
2022/04/22 02:14:19;;;;;;;8.13;5.95;;;;;;;16.74;36.53;92076.81;5012721;28;20325;-88
2022/04/22 02:16:44;;;;;;;10.32;6.07;;;;;;;16.75;36.64;92078.28;5013990;28;20479;-88
2022/04/22 02:19:09;;;;;;;7.25;5.68;;;;;;;16.73;36.80;92072.59;5013778;28;20041;-88
2022/04/22 02:21:35;;;;;;;8.07;5.88;;;;;;;16.75;36.95;92072.09;5023644;28;20048;-87
2022/04/22 02:24:00;;;;;;;8.73;6.15;;;;;;;16.74;36.76;92073.34;5034473;28;20469;-88
2022/04/22 02:26:27;;;;;;;6.40;5.60;;;;;;;16.73;36.86;92074.59;5050360;28;20060;-88
2022/04/22 02:28:52;;;;;;;8.85;6.65;;;;;;;16.73;36.62;92060.97;5017457;28;20045;-87
2022/04/22 02:31:18;;;;;;;8.23;6.20;;;;;;;16.72;37.12;92065.69;5020843;28;20542;-87
2022/04/22 02:33:43;;;;;;;8.32;6.40;;;;;;;16.73;36.92;92069.88;5019926;28;20041;-87
2022/04/22 02:36:09;;;;;;;6.60;5.88;;;;;;;16.74;36.70;92062.44;5034012;28;20513;-87
2022/04/22 02:38:35;;;;;;;8.25;5.80;;;;;;;16.72;36.66;92067.69;5033458;28;20119;-88
2022/04/22 02:45:26;;;;;;;9.20;6.43;;;;;;;16.73;36.82;92058.22;5034603;28;20029;-87
2022/04/22 02:46:33;;;;;;;7.15;5.82;;;;;;;16.73;37.03;92058.22;5033298;28;20039;-87
2022/04/22 02:49:00;;;;;;;9.52;6.20;;;;;;;16.71;36.87;92060.75;5031836;28;20414;-88
2022/04/22 02:51:25;;;;;;;8.10;5.88;;;;;;;16.71;36.96;92053.31;5032405;28;20044;-88
2022/04/22 02:53:52;;;;;;;6.90;5.28;;;;;;;16.72;36.75;92046.59;5049018;28;20041;-88
2022/04/22 02:56:18;;;;;;;7.05;5.22;;;;;;;16.70;36.83;92043.66;5032946;28;20041;-88
2022/04/22 02:58:44;;;;;;;7.93;6.22;;;;;;;16.70;37.02;92045.66;5019649;28;20049;-88
2022/04/22 03:01:09;;;;;;;7.38;5.88;;;;;;;16.71;36.89;92036.94;5010922;28;20368;-88
2022/04/22 03:03:34;;;;;;;7.40;5.43;;;;;;;16.70;36.82;92029.28;5012735;28;20048;-88
2022/04/22 03:06:00;;;;;;;7.72;6.10;;;;;;;16.71;36.94;92028.75;5012780;28;20099;-87
2022/04/22 03:08:25;;;;;;;7.88;5.88;;;;;;;16.71;36.56;92030.75;4994639;28;20399;-88
2022/04/22 03:10:51;;;;;;;8.88;6.28;;;;;;;16.70;36.82;92021.81;5024475;28;20416;-87
2022/04/22 03:13:16;;;;;;;8.88;5.93;;;;;;;16.69;36.75;92022.34;5048064;28;20041;-87
2022/04/22 03:15:44;;;;;;;7.75;5.65;;;;;;;16.71;36.68;92011.66;5028692;28;20036;-88
2022/04/22 03:18:10;;;;;;;7.53;5.47;;;;;;;16.70;36.91;92010.91;5029027;28;20037;-87
2022/04/22 03:20:36;;;;;;;7.68;5.57;;;;;;;16.70;37.07;92007.44;5014077;28;20044;-87
2022/04/22 03:23:01;;;;;;;7.68;5.80;;;;;;;16.69;36.71;92008.72;5032373;28;20371;-88
2022/04/22 03:25:26;;;;;;;6.35;5.60;;;;;;;16.68;36.78;92005.25;5031819;28;20040;-87
2022/04/22 03:27:52;;;;;;;7.28;5.55;;;;;;;16.68;36.70;92005.25;5032147;28;20107;-88
2022/04/22 03:30:18;;;;;;;6.38;5.32;;;;;;;16.68;36.71;91996.34;5027589;28;20029;-88
2022/04/22 03:32:43;;;;;;;7.90;5.45;;;;;;;16.67;37.05;92000.34;5030061;28;20046;-87
2022/04/22 03:35:09;;;;;;;9.48;5.90;;;;;;;16.67;36.63;92001.06;5017147;28;20032;-88
2022/04/22 03:37:34;;;;;;;6.63;5.03;;;;;;;16.66;37.19;92005.06;5034055;28;20048;-88
2022/04/22 03:40:00;;;;;;;6.45;5.75;;;;;;;16.68;36.78;91999.06;5029635;28;20045;-87
2022/04/22 03:42:28;;;;;;;6.53;5.10;;;;;;;16.69;36.79;91997.78;5012065;28;20034;-87
2022/04/22 03:44:55;;;;;;;7.90;5.65;;;;;;;16.66;36.96;91996.91;5012743;28;20447;-88
2022/04/22 03:47:21;;;;;;;8.07;5.57;;;;;;;16.68;36.75;91996.34;5023436;28;20072;-87
2022/04/22 03:49:46;;;;;;;7.05;5.15;;;;;;;16.68;36.85;91991.59;5028331;28;20042;-87
2022/04/22 03:52:13;;;;;;;7.63;5.95;;;;;;;16.67;36.97;91994.91;5044289;28;20368;-87
2022/04/22 03:54:38;;;;;;;6.85;5.72;;;;;;;16.66;36.88;91996.91;5029602;28;20052;-88
2022/04/22 03:59:48;;;;;;;7.60;5.40;;;;;;;16.67;37.05;92000.34;5034437;28;20062;-87
2022/04/22 04:02:13;;;;;;;10.25;6.00;;;;;;;16.67;36.85;92014.69;5048061;28;20037;-87
2022/04/22 04:04:39;;;;;;;8.40;6.32;;;;;;;16.66;36.89;92007.81;5031211;28;20210;-87
2022/04/22 04:07:04;;;;;;;8.40;5.60;;;;;;;16.67;36.99;92005.81;5047430;28;20045;-87
2022/04/22 04:17:41;;;;;;;7.18;5.25;;;;;;;16.66;37.19;92007.06;5033722;28;20118;-88
2022/04/22 04:25:36;;;;;;;7.72;6.00;;;;;;;16.65;36.73;92000.88;5033536;28;20090;-88
2022/04/22 04:28:02;;;;;;;6.90;5.43;;;;;;;16.66;37.07;91998.88;5030979;28;20037;-87
2022/04/22 04:30:28;;;;;;;7.10;5.60;;;;;;;16.66;36.89;92001.63;5015234;28;20570;-88
2022/04/22 04:32:53;;;;;;;7.43;6.40;;;;;;;16.70;36.78;92002.00;5031349;28;20033;-87
2022/04/22 04:35:19;;;;;;;10.95;6.55;;;;;;;16.66;36.65;91991.44;5032279;28;20033;-88
2022/04/22 04:37:44;;;;;;;7.10;5.55;;;;;;;16.70;36.76;92004.72;5036869;28;20545;-88
2022/04/22 04:40:10;;;;;;;7.53;5.35;;;;;;;16.67;36.83;92000.34;5011588;28;20037;-87
2022/04/22 04:42:35;;;;;;;6.18;4.97;;;;;;;16.66;36.86;91996.91;5011163;28;20080;-87
2022/04/22 04:45:01;;;;;;;6.00;4.97;;;;;;;16.66;36.77;92002.34;5030231;28;20060;-87
2022/04/22 04:47:26;;;;;;;7.22;5.80;;;;;;;16.65;36.73;91998.16;5029992;28;20029;-89
2022/04/22 04:49:52;;;;;;;6.63;5.00;;;;;;;16.66;37.10;91996.16;5030302;28;20041;-87
2022/04/22 04:52:17;;;;;;;9.18;5.68;;;;;;;16.68;36.55;91993.59;5014006;28;20426;-87
2022/04/22 04:54:42;;;;;;;7.43;5.22;;;;;;;16.66;36.73;92002.34;5031362;28;20045;-88
2022/04/22 04:57:08;;;;;;;5.15;4.18;;;;;;;16.69;37.13;91997.78;5014342;28;20049;-87
2022/04/22 04:59:34;;;;;;;10.20;4.95;;;;;;;16.67;36.79;91997.63;5017419;28;20404;-87
2022/04/22 05:01:59;;;;;;;6.72;5.05;;;;;;;16.70;36.60;91989.09;5011244;28;20988;-87
2022/04/22 05:04:25;;;;;;;5.38;4.50;;;;;;;16.62;36.90;91988.28;5010112;28;20037;-89
2022/04/22 05:06:50;;;;;;;6.93;5.30;;;;;;;16.68;36.88;91988.16;5014658;28;20332;-87
2022/04/22 05:09:16;;;;;;;6.97;4.93;;;;;;;16.73;37.08;91992.75;5013188;28;20126;-88
2022/04/22 05:11:41;;;;;;;6.57;4.88;;;;;;;16.68;37.11;91990.88;5028418;28;20037;-88
2022/04/22 05:14:07;;;;;;;9.82;5.10;;;;;;;16.70;36.62;91985.63;5011472;28;20033;-88
2022/04/22 05:16:33;;;;;;;6.90;4.50;;;;;;;16.69;36.56;91989.63;5010551;28;20033;-88
2022/04/22 05:18:58;;;;;;;7.82;5.97;;;;;;;16.70;36.85;91996.53;5010346;28;20036;-89
2022/04/22 05:21:23;;;;;;;7.45;5.57;;;;;;;16.70;36.97;91994.53;5017569;28;20044;-87
2022/04/22 05:23:49;;;;;;;12.00;7.75;;;;;;;16.71;36.68;91989.81;5028347;28;20087;-87
2022/04/22 05:26:14;;;;;;;17.67;9.75;;;;;;;16.75;36.80;91990.22;5032674;28;20048;-87
2022/04/22 05:28:40;;;;;;;15.38;10.68;;;;;;;16.72;36.76;91983.81;5033225;28;20114;-87
2022/04/22 05:33:50;;;;;;;16.73;11.23;;;;;;;16.68;37.11;91986.16;5036836;28;20044;-87
2022/04/22 05:36:15;;;;;;;26.75;13.30;;;;;;;16.71;37.03;91976.91;5033648;28;20037;-86
2022/04/22 05:38:41;;;;;;;17.08;11.32;;;;;;;16.71;36.97;91976.16;5033785;28;20546;-86
2022/04/22 05:41:06;;;;;;;15.90;11.25;;;;;;;16.75;36.47;91982.03;5034425;28;20052;-87
2022/04/22 05:43:32;;;;;;;18.35;12.02;;;;;;;16.72;36.80;91974.91;5034779;28;20048;-89
2022/04/22 05:45:58;;;;;;;18.23;11.63;;;;;;;16.75;36.56;91977.31;5009594;28;20045;-86
2022/04/22 05:48:24;;;;;;;17.20;11.30;;;;;;;16.75;36.56;91971.13;5047496;28;20025;-87
2022/04/22 05:50:50;;;;;;;20.27;11.75;;;;;;;16.77;36.64;91977.50;5050773;28;20108;-86
2022/04/22 05:53:16;;;;;;;15.88;11.85;;;;;;;16.72;37.03;91974.91;5033832;28;20572;-86
2022/04/22 05:55:42;;;;;;;17.73;10.73;;;;;;;16.75;37.08;91969.13;5034285;28;20036;-87
2022/04/22 05:58:07;;;;;;;16.98;11.70;;;;;;;16.70;36.52;91966.53;5049185;28;20071;-87
2022/04/22 06:00:33;;;;;;;13.73;10.77;;;;;;;16.70;36.74;91961.78;5032229;28;20098;-88
2022/04/22 06:02:58;;;;;;;17.15;11.02;;;;;;;16.70;36.80;91956.34;5050129;28;20056;-87
2022/04/22 06:05:24;;;;;;;17.88;12.20;;;;;;;16.72;36.51;91953.81;5018356;28;20041;-87
2022/04/22 06:10:34;;;;;;;38.70;14.40;;;;;;;16.69;36.62;91951.41;5018044;28;20060;-87
2022/04/22 06:12:59;;;;;;;40.42;15.63;;;;;;;16.68;36.66;91942.50;5032173;28;20049;-87
2022/04/22 06:15:25;;;;;;;28.73;12.77;;;;;;;16.69;36.88;91948.69;5017842;28;20068;-87
2022/04/22 06:17:51;;;;;;;35.55;14.82;;;;;;;16.70;37.50;91945.44;5026904;28;20029;-90
2022/04/22 06:20:17;;;;;;;24.02;12.70;;;;;;;16.67;37.41;91938.31;4999413;28;20042;-87
2022/04/22 06:22:42;;;;;;;28.25;13.80;;;;;;;16.71;37.14;91937.97;5031117;28;20047;-86
2022/04/22 06:25:09;;;;;;;22.60;12.88;;;;;;;16.68;37.28;91928.13;5022953;28;20038;-87
2022/04/22 06:27:35;;;;;;;24.15;13.82;;;;;;;16.69;37.18;91929.59;5014659;28;20042;-88
2022/04/22 06:30:04;;;;;;;28.98;14.82;;;;;;;16.69;37.29;91921.41;4997500;28;20049;-87
2022/04/22 06:32:30;;;;;;;24.45;14.13;;;;;;;16.70;37.31;91915.41;5014199;28;20037;-87
2022/04/22 06:34:57;;;;;;;37.55;16.70;;;;;;;16.70;37.44;91922.88;5000310;28;20071;-87
2022/04/22 06:37:22;;;;;;;29.17;15.25;;;;;;;16.71;37.41;91930.53;5047784;28;20047;-88
2022/04/22 06:48:10;;;;;;;49.70;19.05;;;;;;;16.73;37.01;91933.44;5018481;28;20052;-88
2022/04/22 06:50:36;;;;;;;37.55;16.48;;;;;;;16.73;37.14;91935.44;5008662;28;20053;-87
2022/04/22 06:53:02;;;;;;;40.53;17.85;;;;;;;16.73;37.40;91940.91;5027706;28;20033;-89
2022/04/22 06:55:27;;;;;;;38.97;18.00;;;;;;;16.74;37.02;91937.63;5032469;28;20041;-89
2022/04/22 06:57:54;;;;;;;45.55;18.15;;;;;;;16.73;37.11;91925.25;5030644;28;20033;-86
2022/04/22 07:00:19;;;;;;;39.90;19.27;;;;;;;16.75;37.26;91935.63;5025433;28;20033;-86
2022/04/22 07:02:46;;;;;;;40.47;19.35;;;;;;;16.77;37.07;91941.28;5044640;28;20866;-86
2022/04/22 07:05:12;;;;;;;42.28;19.17;;;;;;;16.78;37.10;91934.56;5031376;28;20059;-89
2022/04/22 07:07:37;;;;;;;36.80;18.83;;;;;;;16.79;37.45;91936.78;5029115;28;20041;-88
2022/04/22 07:10:03;;;;;;;35.10;17.17;;;;;;;16.81;37.10;91941.69;4996696;28;20037;-88
2022/04/22 07:12:29;;;;;;;40.03;18.33;;;;;;;16.79;37.33;91944.97;5007912;28;20029;-88
2022/04/22 07:15:03;;;;;;;39.22;18.40;;;;;;;16.80;37.44;91940.22;5031155;28;20056;-90
2022/04/22 07:17:32;;;;;;;29.20;15.77;;;;;;;16.79;36.96;91936.03;5021336;28;20098;-91
2022/04/22 07:19:59;;;;;;;28.70;16.75;;;;;;;16.81;36.97;91940.97;5030904;28;20052;-92
2022/04/22 07:22:24;;;;;;;38.42;17.30;;;;;;;16.81;37.05;91952.59;5018032;28;20057;-87
2022/04/22 07:24:50;;;;;;;36.95;17.23;;;;;;;16.80;37.29;91951.16;5020957;28;20053;-88
2022/04/22 07:27:15;;;;;;;34.83;17.88;;;;;;;16.86;36.79;91953.75;5028743;28;20116;-89
2022/04/22 07:29:44;;;;;;;34.10;19.08;;;;;;;16.82;37.08;91956.81;5016947;28;20040;-88
2022/04/22 07:32:10;;;;;;;39.88;17.95;;;;;;;16.83;37.18;91952.06;5030684;28;20072;-89
2022/04/22 07:34:36;;;;;;;44.00;18.83;;;;;;;16.83;37.41;91955.53;5029666;28;20453;-87
2022/04/22 07:37:02;;;;;;;41.22;17.52;;;;;;;16.81;37.15;91947.16;5024437;28;20038;-87
2022/04/22 07:39:27;;;;;;;32.67;18.15;;;;;;;16.85;37.17;91938.63;5002205;28;20095;-93
2022/04/22 07:41:53;;;;;;;68.35;36.25;;;;;;;16.90;36.99;91927.53;5032427;28;20033;-88
2022/04/22 07:47:08;;;;;;;49.63;28.20;;;;;;;16.85;37.28;91944.09;5047093;28;20055;-88
2022/04/22 07:49:33;;;;;;;69.03;31.60;;;;;;;16.84;37.44;91934.44;4994807;28;20038;-91
2022/04/22 07:51:59;;;;;;;56.38;26.55;;;;;;;16.77;37.43;91935.84;5011786;28;20056;-88
2022/04/22 07:54:24;;;;;;;41.67;23.65;;;;;;;16.75;37.19;91949.28;5010754;28;20038;-91
2022/04/22 07:56:49;;;;;;;39.97;21.80;;;;;;;16.69;37.37;91943.22;5010878;28;20045;-87
2022/04/22 07:59:15;;;;;;;34.90;20.13;;;;;;;16.67;37.58;91941.03;5011301;28;20041;-87
2022/04/22 08:01:40;;;;;;;43.60;21.33;;;;;;;16.58;37.61;91944.22;5014779;28;20037;-86
2022/04/22 08:04:06;;;;;;;46.60;21.98;;;;;;;16.54;37.51;91946.56;5047054;28;20041;-86
2022/04/22 08:06:32;;;;;;;39.92;20.95;;;;;;;16.63;37.43;91935.22;5049997;28;20060;-89
2022/04/22 08:08:58;;;;;;;133.68;65.60;;;;;;;16.55;37.64;91945.28;5032537;28;20041;-90
2022/04/22 08:11:24;;;;;;;88.15;43.75;;;;;;;16.59;37.66;91948.41;5014344;28;20048;-87
2022/04/22 08:13:49;;;;;;;145.77;63.10;;;;;;;16.53;37.77;91934.19;5031306;28;20041;-87
2022/04/22 08:16:15;;;;;;;167.63;49.78;;;;;;;16.59;37.74;91936.78;5027827;28;20045;-92
2022/04/22 08:18:41;;;;;;;80.93;29.98;;;;;;;16.55;37.64;91942.56;5012406;28;20132;-86
2022/04/22 08:21:08;;;;;;;65.05;26.95;;;;;;;16.51;37.77;91946.88;5006589;28;20048;-88
2022/04/22 08:23:34;;;;;;;61.95;28.63;;;;;;;16.45;37.97;91945.03;5048366;28;20499;-86
2022/04/22 08:25:59;;;;;;;58.38;29.48;;;;;;;16.47;37.79;91947.22;5033977;28;20045;-87
2022/04/22 08:28:25;;;;;;;27.25;17.13;;;;;;;16.44;38.26;91945.59;5033824;28;20037;-87
2022/04/22 08:30:50;;;;;;;24.92;16.75;;;;;;;16.43;38.18;91938.66;5017730;28;20082;-85
2022/04/22 08:33:16;;;;;;;25.02;15.77;;;;;;;16.39;38.49;91941.72;5034965;28;20410;-88
2022/04/22 08:35:42;;;;;;;25.33;15.13;;;;;;;16.29;38.62;91940.72;5034809;28;20037;-87
2022/04/22 08:38:07;;;;;;;28.63;14.38;;;;;;;16.41;38.38;91938.47;5033023;28;20060;-88
2022/04/22 08:40:34;;;;;;;26.33;14.23;;;;;;;16.39;38.67;91930.06;5024169;28;20057;-86
2022/04/22 08:43:01;;;;;;;20.95;13.15;;;;;;;16.36;38.40;91933.88;4997774;28;20037;-87
2022/04/22 08:45:28;;;;;;;20.17;12.85;;;;;;;16.40;38.64;91931.53;5013472;28;20369;-88
2022/04/22 08:50:38;;;;;;;25.80;13.82;;;;;;;16.31;39.08;91935.47;5028251;28;20125;-88
2022/04/22 08:53:07;;;;;;;24.38;13.88;;;;;;;16.34;39.43;91928.22;5012043;28;20037;-87
2022/04/22 08:55:33;;;;;;;20.92;13.38;;;;;;;16.29;39.28;91929.06;5027740;28;20042;-88
2022/04/22 08:58:06;;;;;;;21.65;13.25;;;;;;;16.28;39.13;91930.34;5026863;28;20052;-89
2022/04/22 09:00:35;;;;;;;19.48;12.02;;;;;;;16.27;39.41;91923.41;5028873;28;20029;-87
2022/04/22 09:03:00;;;;;;;19.67;11.68;;;;;;;16.36;39.18;91918.25;5030837;28;20045;-91
2022/04/22 09:05:26;;;;;;;22.65;11.40;;;;;;;16.35;39.32;91921.50;5030070;28;20060;-86
2022/04/22 09:07:52;;;;;;;16.77;11.82;;;;;;;16.33;39.50;91913.13;5031119;28;20048;-93
2022/04/22 09:10:19;;;;;;;18.83;11.18;;;;;;;16.32;39.52;91917.84;5014887;28;20037;-90
2022/04/22 09:12:52;;;;;;;15.07;10.20;;;;;;;16.34;39.23;91914.56;5009851;28;20667;-90
2022/04/22 09:15:21;;;;;;;17.45;9.98;;;;;;;16.39;39.53;91903.53;5029801;28;20076;-87
2022/04/22 09:17:47;;;;;;;19.48;9.30;;;;;;;16.36;39.71;91910.06;5027606;28;20052;-88
2022/04/22 09:20:13;;;;;;;15.35;9.88;;;;;;;16.35;39.58;91896.94;5034582;28;20036;-87
2022/04/22 09:22:38;;;;;;;14.73;10.50;;;;;;;16.36;39.42;91904.59;5027442;28;20037;-87
2022/04/22 09:25:07;;;;;;;15.13;10.43;;;;;;;16.36;39.57;91910.06;5012327;28;20388;-85
2022/04/22 09:27:37;;;;;;;17.63;10.65;;;;;;;16.45;39.19;91906.13;5014711;28;20037;-90
2022/04/22 09:30:09;;;;;;;12.55;9.50;;;;;;;16.39;39.68;91909.00;5039247;28;20033;-87
2022/04/22 09:32:37;;;;;;;15.23;9.43;;;;;;;16.35;39.90;91905.13;5034033;28;20510;-85
2022/04/22 09:35:16;;;;;;;13.13;9.52;;;;;;;16.37;39.85;91902.59;5033008;28;20509;-87
2022/04/22 09:43:37;;;;;;;11.80;8.52;;;;;;;16.38;40.01;91910.25;5049691;28;20547;-86
2022/04/22 09:46:03;;;;;;;12.20;7.88;;;;;;;16.29;39.87;91913.44;5016500;28;20048;-85
2022/04/22 09:48:44;;;;;;;12.75;7.93;;;;;;;16.39;40.12;91914.44;5012993;28;20037;-86
2022/04/22 09:51:24;;;;;;;10.38;7.97;;;;;;;16.37;39.89;91903.34;5023137;28;20037;-88
2022/04/22 09:54:05;;;;;;;9.97;7.47;;;;;;;16.39;40.01;91909.00;4998926;28;20139;-86
2022/04/22 09:56:33;;;;;;;;;;;;;;;16.37;39.85;91916.25;5014233;28;20042;-83
2022/04/22 09:58:58;;;;;;;12.75;8.00;;;;;;;16.39;40.11;91913.72;5031272;28;19917;-82
2022/04/22 10:01:24;;;;;;;23.15;8.25;;;;;;;16.32;40.64;91922.56;5037674;28;20455;-83
2022/04/22 10:03:50;;;;;;;18.00;7.82;;;;;;;16.26;40.92;91917.22;5013622;28;20038;-85
2022/04/22 10:06:15;;;;;;;28.92;7.43;;;;;;;16.19;41.68;91920.66;4996982;28;20044;-84
2022/04/22 10:08:43;;;;;;;18.38;7.35;;;;;;;16.29;41.53;91905.25;5013582;28;20143;-86
2022/04/22 10:11:09;;;;;;;13.32;7.00;;;;;;;16.18;41.82;91904.81;5015364;28;20043;-87
2022/04/22 10:13:42;;;;;;;9.75;6.80;;;;;;;16.18;41.86;91908.28;5032361;28;20037;-88
2022/04/22 10:16:09;;;;;;;9.23;6.43;;;;;;;16.22;42.11;91919.59;5012300;28;20441;-88
2022/04/22 10:18:34;;;;;;;12.00;6.18;;;;;;;16.15;42.01;91919.50;5013428;28;20040;-86
2022/04/22 10:21:00;;;;;;;8.77;5.47;;;;;;;16.13;42.31;91914.59;5011627;28;20055;-87
2022/04/22 10:23:26;;;;;;;7.95;5.38;;;;;;;16.14;41.99;91916.06;4979995;28;20029;-86
2022/04/22 10:25:51;;;;;;;5.93;5.30;;;;;;;16.17;42.28;91934.06;5012427;28;20068;-89
2022/04/22 10:28:17;;;;;;;16.60;5.45;;;;;;;16.04;42.54;91915.03;5000443;28;20543;-86
2022/04/22 10:30:43;;;;;;;27.23;6.68;;;;;;;16.06;42.60;91915.97;5019613;28;20064;-86
2022/04/22 10:33:09;;;;;;;51.15;7.43;;;;;;;16.05;42.88;91908.31;5018627;28;20037;-85
2022/04/22 10:35:43;;;;;;;14.20;5.32;;;;;;;16.11;42.57;91914.38;5017471;28;20114;-88
2022/04/22 10:38:26;;;;;;;11.73;4.80;;;;;;;16.05;42.58;91914.50;4999693;28;20037;-86
2022/04/22 10:40:52;;;;;;;15.43;5.60;;;;;;;16.14;42.48;91913.31;4987824;28;20136;-86
2022/04/22 10:43:17;;;;;;;8.70;5.55;;;;;;;16.12;42.30;91918.56;5004887;28;20049;-87
2022/04/22 10:48:29;;;;;;;11.07;5.47;;;;;;;16.19;42.18;91917.19;5019233;28;20095;-86
2022/04/22 10:50:58;;;;;;;11.98;6.03;;;;;;;16.22;42.22;91916.84;5032847;28;20096;-86
2022/04/22 10:53:28;;;;;;;9.32;5.35;;;;;;;16.25;41.89;91921.22;5049451;28;20064;-87
2022/04/22 10:55:55;;;;;;;11.38;6.00;;;;;;;16.27;41.89;91909.78;5011776;28;20557;-87
2022/04/22 10:58:23;;;;;;;9.77;5.85;;;;;;;16.27;41.74;91920.69;5013646;28;20484;-86
2022/04/22 11:00:51;;;;;;;9.38;4.68;;;;;;;16.29;41.67;91918.91;4994329;28;20699;-86
2022/04/22 11:03:22;;;;;;;6.22;4.78;;;;;;;16.36;41.51;91920.22;4997344;28;20033;-86
2022/04/22 11:06:00;;;;;;;;;;;;;;;16.36;41.51;91926.41;4995011;28;20082;-87
2022/04/22 11:08:26;;;;;;;9.07;5.13;;;;;;;16.35;41.30;91922.22;5040370;28;19929;-87
2022/04/22 11:10:52;;;;;;;6.13;4.90;;;;;;;16.35;41.75;91921.50;5027876;28;20045;-86
2022/04/22 11:13:32;;;;;;;10.60;5.20;;;;;;;16.36;41.49;91931.13;5028285;28;20120;-86
2022/04/22 11:16:04;;;;;;;9.10;5.03;;;;;;;16.40;41.59;91937.72;5022048;28;20034;-86
2022/04/22 11:18:29;;;;;;;7.45;4.70;;;;;;;16.39;41.43;91939.00;5024677;28;20041;-86
2022/04/22 11:21:00;;;;;;;5.60;4.72;;;;;;;16.43;41.32;91928.47;4999490;28;20029;-86
2022/04/22 11:23:33;;;;;;;9.80;4.85;;;;;;;16.41;41.41;91931.00;5029256;28;20608;-86
2022/04/22 11:25:59;;;;;;;5.60;3.97;;;;;;;16.42;41.45;91934.47;5034980;28;20030;-86
2022/04/22 11:28:25;;;;;;;5.35;4.03;;;;;;;16.44;41.44;91946.31;4994234;28;20071;-87
2022/04/22 11:30:51;;;;;;;7.22;4.18;;;;;;;16.46;41.24;91946.47;4994847;28;20112;-86
2022/04/22 11:33:23;;;;;;;5.13;4.00;;;;;;;16.46;41.25;91937.56;5010362;28;20532;-86
2022/04/22 11:35:53;;;;;;;4.35;3.95;;;;;;;16.46;41.42;91948.47;5011397;28;20045;-86
2022/04/22 11:38:19;;;;;;;3.88;3.47;;;;;;;16.46;41.30;91959.38;5021780;28;20036;-87
2022/04/22 11:40:47;;;;;;;5.95;4.03;;;;;;;16.48;41.51;91964.31;5011167;28;20029;-89
2022/04/22 11:43:14;;;;;;;6.28;4.03;;;;;;;16.48;41.21;91967.03;5026551;28;20030;-86
2022/04/22 11:45:46;;;;;;;7.28;4.18;;;;;;;16.49;41.17;91961.06;5010959;28;20678;-86
2022/04/22 11:48:13;;;;;;;4.18;3.40;;;;;;;16.53;41.26;91960.72;5029355;28;20120;-86
2022/04/22 11:50:40;;;;;;;3.92;3.45;;;;;;;16.50;41.50;91954.34;5012966;28;20086;-86
2022/04/22 11:53:17;;;;;;;4.32;3.40;;;;;;;16.54;40.99;91956.72;5029936;28;20064;-86
2022/04/22 11:55:43;;;;;;;5.22;3.42;;;;;;;16.52;41.08;91964.72;5030082;28;20045;-87
2022/04/22 11:58:10;;;;;;;6.15;3.65;;;;;;;16.52;41.35;91962.00;5012690;28;20041;-86
2022/04/22 12:06:11;;;;;;;4.47;3.22;;;;;;;16.57;40.97;91970.03;5026054;28;20092;-86
2022/04/22 12:08:37;;;;;;;4.22;3.20;;;;;;;16.54;40.99;91970.38;5026822;28;20044;-86
2022/04/22 12:11:02;;;;;;;3.75;3.35;;;;;;;16.53;41.01;91985.28;5009920;28;20569;-86
2022/04/22 12:13:28;;;;;;;3.40;2.90;;;;;;;16.56;41.05;91979.50;5009937;28;20042;-86
2022/04/22 12:15:54;;;;;;;5.47;3.40;;;;;;;16.56;41.00;91976.03;5005009;28;20041;-86
2022/04/22 12:18:27;;;;;;;4.10;3.33;;;;;;;16.55;40.88;91969.13;5012811;28;20040;-88
2022/04/22 12:20:53;;;;;;;5.28;3.20;;;;;;;16.56;41.21;91978.75;4993523;28;20038;-86